Time;durP1;ratioP1;P1;durP2;ratioP2;P2;SDS_P1;SDS_P2;PMS_P1;PMS_P2;Temp;Humidity;BMP_temperature;BMP_pressure;BME280_temperature;BME280_humidity;BME280_pressure;Samples;Min_cycle;Max_cycle;Signal;HPM_P1;HPM_P2
2022/10/30 00:00:04;;;;;;;5.07;1.50;;;;;;;;;;5132960;27;20058;-68
2022/10/30 00:02:39;;;;;;;3.15;1.70;;;;;;;;;;5095801;27;20046;-69
2022/10/30 00:05:09;;;;;;;2.72;1.23;;;;;;;;;;5123334;27;20402;-68
2022/10/30 00:07:39;;;;;;;8.00;1.20;;;;;;;;;;5121759;27;20043;-68
2022/10/30 00:10:10;;;;;;;4.47;1.48;;;;;;;;;;5121209;27;20032;-65
2022/10/30 00:12:39;;;;;;;3.25;1.20;;;;;;;;;;5093340;28;20075;-68
2022/10/30 00:15:10;;;;;;;3.05;1.17;;;;;;;;;;5055638;28;20055;-68
2022/10/30 00:17:41;;;;;;;3.03;1.45;;;;;;;;;;5088930;28;20052;-68
2022/10/30 00:20:11;;;;;;;2.47;1.20;;;;;;;;;;5089283;28;20070;-68
2022/10/30 00:22:41;;;;;;;3.08;1.23;;;;;;;;;;5089245;28;20044;-69
2022/10/30 00:25:10;;;;;;;3.08;1.45;;;;;;;;;;5089153;28;20631;-68
2022/10/30 00:27:40;;;;;;;3.10;1.20;;;;;;;;;;5055630;28;20500;-68
2022/10/30 00:30:11;;;;;;;9.35;1.33;;;;;;;;;;5089100;28;20064;-68
2022/10/30 00:32:42;;;;;;;4.75;1.50;;;;;;;;;;5068762;28;20060;-68
2022/10/30 00:35:12;;;;;;;4.28;1.40;;;;;;;;;;5068685;28;20053;-68
2022/10/30 00:37:42;;;;;;;2.47;1.15;;;;;;;;;;5028799;28;20061;-68
2022/10/30 00:40:17;;;;;;;4.45;1.50;;;;;;;;;;5012090;28;20512;-68
2022/10/30 00:42:48;;;;;;;5.93;1.52;;;;;;;;;;5028715;28;20065;-68
2022/10/30 00:45:18;;;;;;;7.20;1.60;;;;;;;;;;5008879;28;20050;-69
2022/10/30 00:47:59;;;;;;;3.63;1.42;;;;;;;;;;4969927;28;20780;-68
2022/10/30 00:50:36;;;;;;;4.03;1.60;;;;;;;;;;4948894;28;20050;-68
2022/10/30 00:53:16;;;;;;;4.45;1.75;;;;;;;;;;4989240;28;20054;-68
2022/10/30 00:55:55;;;;;;;3.50;1.35;;;;;;;;;;4989220;28;20046;-69
2022/10/30 00:58:31;;;;;;;3.38;1.40;;;;;;;;;;4989348;28;20058;-68
2022/10/30 01:01:06;;;;;;;3.00;1.30;;;;;;;;;;4989366;28;20062;-68
2022/10/30 01:03:39;;;;;;;5.07;1.55;;;;;;;;;;4969389;28;20422;-68
2022/10/30 01:06:13;;;;;;;4.32;1.55;;;;;;;;;;4934213;28;20058;-70
2022/10/30 01:08:44;;;;;;;6.65;1.92;;;;;;;;;;4931330;29;20058;-68
2022/10/30 01:11:14;;;;;;;3.08;1.40;;;;;;;;;;4895822;29;20127;-68
2022/10/30 01:13:48;;;;;;;5.43;1.60;;;;;;;;;;4893651;29;20183;-68
2022/10/30 01:16:38;;;;;;;3.60;1.42;;;;;;;;;;4879590;29;20536;-68
2022/10/30 01:19:18;;;;;;;5.18;1.50;;;;;;;;;;4930908;29;20048;-68
2022/10/30 01:22:14;;;;;;;3.60;1.75;;;;;;;;;;4931698;29;20052;-68
2022/10/30 01:25:19;;;;;;;3.13;1.42;;;;;;;;;;4950389;28;20059;-68
2022/10/30 01:28:25;;;;;;;2.88;1.25;;;;;;;;;;4919723;29;20055;-68
2022/10/30 01:31:06;;;;;;;4.38;1.30;;;;;;;;;;4918562;29;20051;-69
2022/10/30 01:34:01;;;;;;;5.00;1.63;;;;;;;;;;4904644;29;20057;-68
2022/10/30 01:36:49;;;;;;;5.55;1.30;;;;;;;;;;4896179;29;20068;-68
2022/10/30 01:39:23;;;;;;;4.57;1.52;;;;;;;;;;4915188;29;20048;-68
2022/10/30 01:41:53;;;;;;;4.70;1.70;;;;;;;;;;4896238;29;20063;-68
2022/10/30 01:44:29;;;;;;;3.03;1.45;;;;;;;;;;4882687;29;20057;-68
2022/10/30 01:47:30;;;;;;;3.67;2.00;;;;;;;;;;4891468;29;20060;-68
2022/10/30 01:50:18;;;;;;;4.07;1.48;;;;;;;;;;4880618;29;20052;-68
2022/10/30 01:53:03;;;;;;;4.90;1.40;;;;;;;;;;4880869;29;20461;-68
2022/10/30 01:55:42;;;;;;;3.10;1.48;;;;;;;;;;4914993;29;20069;-69
2022/10/30 01:58:33;;;;;;;3.72;1.67;;;;;;;;;;4949446;29;20052;-68
2022/10/30 02:01:04;;;;;;;6.13;1.70;;;;;;;;;;4952713;29;20055;-68
2022/10/30 02:03:35;;;;;;;5.55;1.50;;;;;;;;;;4952966;29;20068;-68
2022/10/30 02:06:05;;;;;;;6.20;3.10;;;;;;;;;;4953243;29;20066;-68
2022/10/30 02:08:35;;;;;;;8.35;2.38;;;;;;;;;;4943793;29;20487;-69
2022/10/30 02:11:07;;;;;;;8.27;2.20;;;;;;;;;;4942141;29;20439;-68
2022/10/30 02:13:41;;;;;;;5.78;2.72;;;;;;;;;;4947613;29;20059;-68
2022/10/30 02:16:11;;;;;;;5.50;2.47;;;;;;;;;;4919180;29;20059;-68
2022/10/30 02:18:43;;;;;;;6.68;2.75;;;;;;;;;;4951902;29;20510;-69
2022/10/30 02:21:17;;;;;;;8.90;2.60;;;;;;;;;;4936865;29;20051;-68
2022/10/30 02:23:48;;;;;;;6.10;2.30;;;;;;;;;;4949382;29;20043;-68
2022/10/30 02:26:19;;;;;;;7.15;2.33;;;;;;;;;;4965492;28;20165;-68
2022/10/30 02:28:49;;;;;;;6.13;2.03;;;;;;;;;;4971853;28;20066;-69
2022/10/30 02:31:19;;;;;;;5.32;1.92;;;;;;;;;;4952502;29;20044;-68
2022/10/30 02:33:48;;;;;;;5.53;1.90;;;;;;;;;;4919313;29;20048;-68
2022/10/30 02:36:20;;;;;;;7.50;2.30;;;;;;;;;;4914474;29;20071;-68
2022/10/30 02:38:50;;;;;;;4.35;1.65;;;;;;;;;;4933324;29;20047;-68
2022/10/30 02:41:21;;;;;;;3.67;1.75;;;;;;;;;;4922829;29;20048;-68
2022/10/30 02:43:52;;;;;;;3.53;1.70;;;;;;;;;;4933046;29;20055;-68
2022/10/30 02:46:22;;;;;;;6.32;2.33;;;;;;;;;;4903762;29;20057;-68
2022/10/30 02:48:52;;;;;;;5.10;1.95;;;;;;;;;;4895566;29;20064;-68
2022/10/30 02:51:22;;;;;;;4.45;1.85;;;;;;;;;;4914079;29;20536;-68
2022/10/30 02:53:52;;;;;;;6.95;3.10;;;;;;;;;;4913829;29;20056;-68
2022/10/30 02:56:22;;;;;;;9.02;2.20;;;;;;;;;;4923520;29;20052;-68
2022/10/30 02:58:55;;;;;;;5.97;1.90;;;;;;;;;;4898262;29;20064;-68
2022/10/30 03:01:26;;;;;;;3.97;1.85;;;;;;;;;;4892008;29;20493;-68
2022/10/30 03:03:58;;;;;;;5.13;1.70;;;;;;;;;;4932747;29;20443;-68
2022/10/30 03:06:28;;;;;;;3.90;1.67;;;;;;;;;;4932877;28;20044;-68
2022/10/30 03:08:59;;;;;;;3.45;1.75;;;;;;;;;;4922999;29;20466;-68
2022/10/30 03:11:29;;;;;;;5.05;1.73;;;;;;;;;;4922855;29;20531;-68
2022/10/30 03:13:59;;;;;;;8.27;1.92;;;;;;;;;;4913834;29;20483;-68
2022/10/30 03:16:29;;;;;;;5.13;1.73;;;;;;;;;;4923205;29;20170;-68
2022/10/30 03:18:59;;;;;;;6.25;2.00;;;;;;;;;;4913601;29;20094;-68
2022/10/30 03:21:30;;;;;;;4.32;1.77;;;;;;;;;;4923203;29;20401;-68
2022/10/30 03:24:00;;;;;;;6.80;2.13;;;;;;;;;;4922636;29;20051;-68
2022/10/30 03:26:30;;;;;;;3.90;1.65;;;;;;;;;;4913447;29;20230;-68
2022/10/30 03:29:06;;;;;;;4.45;1.80;;;;;;;;;;4922400;29;20056;-67
2022/10/30 03:31:36;;;;;;;7.93;1.85;;;;;;;;;;4903478;29;20044;-66
2022/10/30 03:34:27;;;;;;;6.03;1.88;;;;;;;;;;4859431;29;20076;-68
2022/10/30 03:36:59;;;;;;;10.93;2.28;;;;;;;;;;4919850;28;20491;-68
2022/10/30 03:39:30;;;;;;;5.70;2.25;;;;;;;;;;4885010;29;20191;-68
2022/10/30 03:42:00;;;;;;;6.30;2.13;;;;;;;;;;4900409;29;20060;-68
2022/10/30 03:44:30;;;;;;;4.70;2.13;;;;;;;;;;4920222;29;20052;-68
2022/10/30 03:47:00;;;;;;;5.88;2.33;;;;;;;;;;4913057;29;20063;-68
2022/10/30 03:49:34;;;;;;;7.97;2.20;;;;;;;;;;4905606;29;20106;-68
2022/10/30 03:52:09;;;;;;;7.47;2.33;;;;;;;;;;4927545;29;20552;-68
2022/10/30 03:54:39;;;;;;;10.13;3.08;;;;;;;;;;4926278;29;20048;-68
2022/10/30 03:57:12;;;;;;;11.80;2.63;;;;;;;;;;4918004;29;20075;-68
2022/10/30 03:59:57;;;;;;;5.82;3.10;;;;;;;;;;4899665;29;20176;-68
2022/10/30 04:02:51;;;;;;;8.00;2.40;;;;;;;;;;4876029;29;20445;-68
2022/10/30 04:05:23;;;;;;;6.22;2.63;;;;;;;;;;4912270;29;20957;-68
2022/10/30 04:07:59;;;;;;;5.28;2.10;;;;;;;;;;4893799;29;20408;-68
2022/10/30 04:10:35;;;;;;;5.28;2.20;;;;;;;;;;4809097;29;20057;-68
2022/10/30 04:13:10;;;;;;;7.50;2.30;;;;;;;;;;4838272;29;20069;-68
2022/10/30 04:15:48;;;;;;;8.93;4.25;;;;;;;;;;4874247;29;20064;-68
2022/10/30 04:18:26;;;;;;;13.13;4.75;;;;;;;;;;4846702;29;20080;-69
2022/10/30 04:20:59;;;;;;;9.68;4.43;;;;;;;;;;4893627;29;20056;-68
2022/10/30 04:23:29;;;;;;;11.40;4.40;;;;;;;;;;4874458;29;20053;-68
2022/10/30 04:26:01;;;;;;;10.85;4.38;;;;;;;;;;4838042;29;20069;-68
2022/10/30 04:28:31;;;;;;;12.88;4.60;;;;;;;;;;4837944;29;20414;-68
2022/10/30 04:31:01;;;;;;;8.90;3.78;;;;;;;;;;4769839;29;20066;-68
2022/10/30 04:33:33;;;;;;;10.43;3.90;;;;;;;;;;4801650;29;20055;-68
2022/10/30 04:36:04;;;;;;;12.38;4.43;;;;;;;;;;4819695;29;20055;-68
2022/10/30 04:38:34;;;;;;;11.32;4.07;;;;;;;;;;4803917;29;20058;-68
2022/10/30 04:41:07;;;;;;;9.98;3.72;;;;;;;;;;4837845;29;20054;-69
2022/10/30 04:43:50;;;;;;;14.35;4.10;;;;;;;;;;4852457;29;20053;-67
2022/10/30 04:46:21;;;;;;;9.15;3.83;;;;;;;;;;4856415;29;20057;-68
2022/10/30 04:48:54;;;;;;;11.43;4.13;;;;;;;;;;4846639;29;20057;-67
2022/10/30 04:51:25;;;;;;;15.50;4.85;;;;;;;;;;4874900;29;20053;-69
2022/10/30 04:53:55;;;;;;;7.43;3.88;;;;;;;;;;4887647;29;20061;-68
2022/10/30 04:56:27;;;;;;;8.23;3.03;;;;;;;;;;4912406;29;20400;-69
2022/10/30 04:58:58;;;;;;;8.40;3.10;;;;;;;;;;4924063;29;20056;-72
2022/10/30 05:01:28;;;;;;;8.88;3.40;;;;;;;;;;4918077;29;20059;-76
2022/10/30 05:03:59;;;;;;;4.40;1.73;;;;;;;;;;4878094;29;20057;-74
2022/10/30 05:06:30;;;;;;;2.50;1.15;;;;;;;;;;4863524;29;20056;-74
2022/10/30 05:09:00;;;;;;;3.33;1.15;;;;;;;;;;4852746;29;20522;-73
2022/10/30 05:11:39;;;;;;;3.83;1.80;;;;;;;;;;4867928;29;20057;-72
2022/10/30 05:14:09;;;;;;;6.90;1.60;;;;;;;;;;4890725;29;20057;-70
2022/10/30 05:16:39;;;;;;;3.25;1.30;;;;;;;;;;4878144;29;20193;-70
2022/10/30 05:19:10;;;;;;;4.03;1.40;;;;;;;;;;4874263;29;20060;-69
2022/10/30 05:21:44;;;;;;;4.90;1.52;;;;;;;;;;4900130;29;20494;-76
2022/10/30 05:24:15;;;;;;;6.18;1.50;;;;;;;;;;4878137;29;20057;-75
2022/10/30 05:26:46;;;;;;;3.22;1.52;;;;;;;;;;4867738;29;20049;-75
2022/10/30 05:29:16;;;;;;;3.67;1.50;;;;;;;;;;4877751;29;20497;-73
2022/10/30 05:31:47;;;;;;;3.72;1.63;;;;;;;;;;4877842;29;20057;-72
2022/10/30 05:34:17;;;;;;;2.90;1.42;;;;;;;;;;4888843;29;20056;-71
2022/10/30 05:36:50;;;;;;;6.53;1.80;;;;;;;;;;4907440;29;20509;-72
2022/10/30 05:39:21;;;;;;;3.45;1.50;;;;;;;;;;4915227;29;20397;-71
2022/10/30 05:41:52;;;;;;;5.05;1.55;;;;;;;;;;4922727;29;20067;-71
2022/10/30 05:44:24;;;;;;;4.18;1.70;;;;;;;;;;4915089;29;20492;-71
2022/10/30 05:47:14;;;;;;;4.70;1.80;;;;;;;;;;4920366;29;20696;-70
2022/10/30 05:49:48;;;;;;;4.57;1.55;;;;;;;;;;4915043;29;20052;-68
2022/10/30 05:52:21;;;;;;;5.57;1.90;;;;;;;;;;4877584;29;20053;-69
2022/10/30 05:54:52;;;;;;;2.22;1.17;;;;;;;;;;4851060;29;20559;-66
2022/10/30 05:57:33;;;;;;;1.92;1.02;;;;;;;;;;4858935;29;20413;-68
2022/10/30 06:00:04;;;;;;;3.55;1.15;;;;;;;;;;4875613;29;20048;-70
2022/10/30 06:02:42;;;;;;;2.15;1.00;;;;;;;;;;4881221;29;20053;-72
2022/10/30 06:05:16;;;;;;;4.50;1.42;;;;;;;;;;4846948;29;20072;-70
2022/10/30 06:07:46;;;;;;;4.20;1.00;;;;;;;;;;4880490;29;20080;-70
2022/10/30 06:10:15;;;;;;;2.15;1.15;;;;;;;;;;4925005;29;20045;-68
2022/10/30 06:13:04;;;;;;;2.03;0.93;;;;;;;;;;4952339;29;20622;-69
2022/10/30 06:16:00;;;;;;;1.55;0.70;;;;;;;;;;4903023;29;20198;-68
2022/10/30 06:18:50;;;;;;;1.48;0.77;;;;;;;;;;4910847;29;20102;-68
2022/10/30 06:21:21;;;;;;;2.38;0.93;;;;;;;;;;4910993;29;20544;-69
2022/10/30 06:24:08;;;;;;;2.10;0.75;;;;;;;;;;4911153;29;20425;-69
2022/10/30 06:26:43;;;;;;;3.50;1.10;;;;;;;;;;4895557;29;20516;-68
2022/10/30 06:29:15;;;;;;;4.25;0.90;;;;;;;;;;4836068;29;20054;-67
2022/10/30 06:31:46;;;;;;;4.70;1.08;;;;;;;;;;4861570;29;20060;-71
2022/10/30 06:34:16;;;;;;;1.33;0.90;;;;;;;;;;4876794;29;20052;-67
2022/10/30 06:36:47;;;;;;;4.63;1.42;;;;;;;;;;4857828;29;20434;-68
2022/10/30 06:39:17;;;;;;;1.85;0.90;;;;;;;;;;4857934;29;20053;-68
2022/10/30 06:42:04;;;;;;;4.13;1.00;;;;;;;;;;4890097;29;20054;-68
2022/10/30 06:45:06;;;;;;;2.85;0.75;;;;;;;;;;4863668;29;20081;-68
2022/10/30 06:47:37;;;;;;;1.88;0.93;;;;;;;;;;4851303;29;20066;-68
2022/10/30 06:50:11;;;;;;;3.40;0.82;;;;;;;;;;4871583;29;20057;-67
2022/10/30 06:52:42;;;;;;;2.22;0.93;;;;;;;;;;4856574;29;20180;-67
2022/10/30 06:55:13;;;;;;;1.92;1.17;;;;;;;;;;4799395;29;20058;-68
2022/10/30 06:57:54;;;;;;;1.90;0.90;;;;;;;;;;4857890;29;20053;-67
2022/10/30 07:00:55;;;;;;;2.33;1.00;;;;;;;;;;4858212;29;20057;-67
2022/10/30 07:03:43;;;;;;;3.72;1.00;;;;;;;;;;4845667;29;20049;-67
2022/10/30 07:06:13;;;;;;;2.40;1.02;;;;;;;;;;4851174;29;20523;-67
2022/10/30 07:08:43;;;;;;;2.03;0.77;;;;;;;;;;4854459;29;20072;-67
2022/10/30 07:11:14;;;;;;;1.50;0.75;;;;;;;;;;4846339;29;20059;-68
2022/10/30 07:14:02;;;;;;;2.20;0.70;;;;;;;;;;4803249;29;20059;-66
2022/10/30 07:16:36;;;;;;;2.85;0.80;;;;;;;;;;4804950;29;20392;-67
2022/10/30 07:19:06;;;;;;;4.03;0.73;;;;;;;;;;4788643;29;20178;-68
2022/10/30 07:21:37;;;;;;;2.65;1.00;;;;;;;;;;4853679;29;20407;-68
2022/10/30 07:24:08;;;;;;;1.88;0.70;;;;;;;;;;4840259;29;20052;-68
2022/10/30 07:26:56;;;;;;;2.63;0.70;;;;;;;;;;4833944;29;20530;-68
2022/10/30 07:29:35;;;;;;;1.67;0.70;;;;;;;;;;4842203;29;20054;-67
2022/10/30 07:32:23;;;;;;;1.50;0.73;;;;;;;;;;4857650;29;20411;-67
2022/10/30 07:35:14;;;;;;;1.67;0.77;;;;;;;;;;4877194;29;20057;-67
2022/10/30 07:38:13;;;;;;;3.78;0.80;;;;;;;;;;4897421;29;20064;-66
2022/10/30 07:40:55;;;;;;;2.28;0.60;;;;;;;;;;4913319;29;20048;-67
2022/10/30 07:43:49;;;;;;;3.45;0.80;;;;;;;;;;4881991;29;20052;-65
2022/10/30 07:46:44;;;;;;;2.15;0.73;;;;;;;;;;4888392;29;20052;-66
2022/10/30 07:49:38;;;;;;;3.83;0.90;;;;;;;;;;4885405;29;20063;-66
2022/10/30 07:52:09;;;;;;;1.20;0.60;;;;;;;;;;4894466;29;20547;-65
2022/10/30 07:54:48;;;;;;;2.22;0.80;;;;;;;;;;4926506;29;20059;-65
2022/10/30 07:57:44;;;;;;;0.90;0.50;;;;;;;;;;4914772;29;20056;-66
2022/10/30 08:00:33;;;;;;;2.17;0.73;;;;;;;;;;4936341;28;20514;-66
2022/10/30 08:03:11;;;;;;;4.45;0.80;;;;;;;;;;4974787;28;20053;-65
2022/10/30 08:05:51;;;;;;;1.70;0.50;;;;;;;;;;4989563;28;20054;-66
2022/10/30 08:08:35;;;;;;;0.95;0.50;;;;;;;;;;4984493;28;20051;-65
2022/10/30 08:11:22;;;;;;;1.60;0.77;;;;;;;;;;4985782;28;20070;-66
2022/10/30 08:13:54;;;;;;;0.93;0.50;;;;;;;;;;4970072;28;20074;-66
2022/10/30 08:16:24;;;;;;;2.85;1.40;;;;;;;;;;4970089;28;20055;-66
2022/10/30 08:18:54;;;;;;;1.90;0.80;;;;;;;;;;4933455;29;20488;-64
2022/10/30 08:21:26;;;;;;;2.03;0.70;;;;;;;;;;4931963;29;20389;-66
2022/10/30 08:23:59;;;;;;;0.80;0.50;;;;;;;;;;4931744;29;20055;-66
2022/10/30 08:26:33;;;;;;;1.52;0.50;;;;;;;;;;4861057;29;20758;-66
2022/10/30 08:29:04;;;;;;;0.82;0.57;;;;;;;;;;4875079;29;20060;-65
2022/10/30 08:31:34;;;;;;;2.08;0.63;;;;;;;;;;4874862;29;20142;-66
2022/10/30 08:34:04;;;;;;;1.25;0.60;;;;;;;;;;4876232;29;20061;-65
2022/10/30 08:36:43;;;;;;;1.35;0.90;;;;;;;;;;4860281;29;20064;-66
2022/10/30 08:39:17;;;;;;;1.98;0.65;;;;;;;;;;4838020;29;20407;-66
2022/10/30 08:41:59;;;;;;;1.30;0.70;;;;;;;;;;4834266;29;20077;-63
2022/10/30 08:44:38;;;;;;;2.40;0.65;;;;;;;;;;4841797;29;20136;-65
2022/10/30 08:47:24;;;;;;;1.70;0.75;;;;;;;;;;4842267;29;20111;-65
2022/10/30 08:49:54;;;;;;;2.45;0.77;;;;;;;;;;4878577;29;20060;-66
2022/10/30 08:52:27;;;;;;;2.42;0.73;;;;;;;;;;4845032;29;20050;-63
2022/10/30 08:54:58;;;;;;;1.50;0.57;;;;;;;;;;4875684;29;20053;-66
2022/10/30 08:57:37;;;;;;;1.30;0.70;;;;;;;;;;4861125;29;20536;-66
2022/10/30 09:00:09;;;;;;;1.48;0.70;;;;;;;;;;4896988;29;20053;-66
2022/10/30 09:02:59;;;;;;;2.85;0.70;;;;;;;;;;4865752;29;20055;-66
2022/10/30 09:06:02;;;;;;;1.67;0.50;;;;;;;;;;4856762;29;20410;-66
2022/10/30 09:08:33;;;;;;;1.77;0.60;;;;;;;;;;4859683;29;20057;-66
2022/10/30 09:11:16;;;;;;;1.52;0.80;;;;;;;;;;4878449;29;20053;-66
2022/10/30 09:13:46;;;;;;;1.20;0.63;;;;;;;;;;4831437;29;20388;-66
2022/10/30 09:16:17;;;;;;;1.13;0.50;;;;;;;;;;4863567;29;20068;-68
2022/10/30 09:18:47;;;;;;;0.95;0.50;;;;;;;;;;4877798;29;20572;-66
2022/10/30 09:21:18;;;;;;;1.27;0.70;;;;;;;;;;4859311;29;20049;-67
2022/10/30 09:23:51;;;;;;;1.33;0.55;;;;;;;;;;4859279;29;20103;-66
2022/10/30 09:26:57;;;;;;;1.15;0.43;;;;;;;;;;4836815;29;20062;-68
2022/10/30 09:29:30;;;;;;;6.40;0.77;;;;;;;;;;4803664;29;20058;-66
2022/10/30 09:32:26;;;;;;;3.22;0.70;;;;;;;;;;4781056;29;20059;-67
2022/10/30 09:35:12;;;;;;;2.58;0.70;;;;;;;;;;4813224;29;20062;-66
2022/10/30 09:37:56;;;;;;;1.00;0.43;;;;;;;;;;4832244;29;20058;-67
2022/10/30 09:41:00;;;;;;;5.05;0.70;;;;;;;;;;4821938;29;20070;-67
2022/10/30 09:43:39;;;;;;;3.97;0.70;;;;;;;;;;4840550;29;20054;-65
2022/10/30 09:46:51;;;;;;;3.42;0.50;;;;;;;;;;4858300;29;20065;-65
2022/10/30 09:49:37;;;;;;;2.00;0.63;;;;;;;;;;4804126;29;20054;-65
2022/10/30 09:52:59;;;;;;;2.33;0.82;;;;;;;;;;4803399;29;20059;-65
2022/10/30 09:55:57;;;;;;;2.75;0.52;;;;;;;;;;4803205;29;20074;-66
2022/10/30 09:58:43;;;;;;;1.92;0.73;;;;;;;;;;4804350;29;20054;-66
2022/10/30 10:01:50;;;;;;;0.95;0.60;;;;;;;;;;4792513;29;20059;-66
2022/10/30 10:04:26;;;;;;;1.52;0.60;;;;;;;;;;4786234;29;20077;-66
2022/10/30 10:07:24;;;;;;;2.08;0.88;;;;;;;;;;4795440;29;20059;-66
2022/10/30 10:10:50;;;;;;;2.13;0.70;;;;;;;;;;4819353;29;20054;-67
2022/10/30 10:13:37;;;;;;;3.45;0.80;;;;;;;;;;4820471;29;20105;-67
2022/10/30 10:16:23;;;;;;;1.63;0.70;;;;;;;;;;4824763;29;20112;-66
2022/10/30 10:19:02;;;;;;;2.75;0.70;;;;;;;;;;4839592;29;20074;-65
2022/10/30 10:21:39;;;;;;;2.55;1.13;;;;;;;;;;4801298;29;20558;-67
2022/10/30 10:24:32;;;;;;;1.65;0.82;;;;;;;;;;4833304;29;20062;-65
2022/10/30 10:27:05;;;;;;;2.92;0.52;;;;;;;;;;4890909;29;20083;-65
2022/10/30 10:29:56;;;;;;;3.35;0.77;;;;;;;;;;4901739;29;20412;-66
2022/10/30 10:32:42;;;;;;;1.55;0.90;;;;;;;;;;4898974;29;20078;-65
2022/10/30 10:35:39;;;;;;;3.15;0.80;;;;;;;;;;4914523;29;20416;-65
2022/10/30 10:38:21;;;;;;;1.25;0.50;;;;;;;;;;4929610;29;20527;-66
2022/10/30 10:41:09;;;;;;;1.42;0.70;;;;;;;;;;4974823;28;20157;-66
2022/10/30 10:44:00;;;;;;;1.83;0.75;;;;;;;;;;5013710;28;20053;-67
2022/10/30 10:47:29;;;;;;;1.27;0.43;;;;;;;;;;5004966;28;20054;-68
2022/10/30 10:50:27;;;;;;;1.42;0.77;;;;;;;;;;4987679;28;20065;-66
2022/10/30 10:53:11;;;;;;;1.15;0.55;;;;;;;;;;5029250;28;20057;-66
2022/10/30 10:55:43;;;;;;;1.48;0.60;;;;;;;;;;4996616;28;20090;-66
2022/10/30 10:58:25;;;;;;;2.88;0.60;;;;;;;;;;5028733;28;20056;-67
2022/10/30 11:01:00;;;;;;;2.90;1.00;;;;;;;;;;5029917;28;20049;-67
2022/10/30 11:03:51;;;;;;;2.40;0.60;;;;;;;;;;5030538;28;20493;-67
2022/10/30 11:06:37;;;;;;;1.05;0.50;;;;;;;;;;4997430;28;20065;-67
2022/10/30 11:09:23;;;;;;;1.73;0.80;;;;;;;;;;5029863;28;20053;-64
2022/10/30 11:11:55;;;;;;;1.67;0.52;;;;;;;;;;4979357;28;20057;-65
2022/10/30 11:14:28;;;;;;;3.53;0.70;;;;;;;;;;5029704;28;20425;-67
2022/10/30 11:17:38;;;;;;;0.80;0.70;;;;;;;;;;5030250;28;20056;-65
2022/10/30 11:20:20;;;;;;;1.70;0.60;;;;;;;;;;5059085;28;20044;-67
2022/10/30 11:22:51;;;;;;;1.55;0.90;;;;;;;;;;5097215;27;20529;-66
2022/10/30 11:25:32;;;;;;;1.70;0.70;;;;;;;;;;5133561;27;20039;-66
2022/10/30 11:28:05;;;;;;;1.88;0.60;;;;;;;;;;5132498;27;20035;-65
2022/10/30 11:30:35;;;;;;;1.80;0.60;;;;;;;;;;5133739;27;20043;-66
2022/10/30 11:33:22;;;;;;;1.20;0.77;;;;;;;;;;5133204;27;20035;-65
2022/10/30 11:35:53;;;;;;;4.40;0.63;;;;;;;;;;5133555;27;20047;-66
2022/10/30 11:38:26;;;;;;;1.98;0.90;;;;;;;;;;5132482;27;20035;-64
2022/10/30 11:40:56;;;;;;;1.48;0.60;;;;;;;;;;5133121;27;20043;-66
2022/10/30 11:43:27;;;;;;;3.33;0.70;;;;;;;;;;5105582;27;20047;-65
2022/10/30 11:45:57;;;;;;;1.00;0.50;;;;;;;;;;5127504;27;20046;-63
2022/10/30 11:48:31;;;;;;;0.98;0.57;;;;;;;;;;5133117;27;20517;-64
2022/10/30 11:51:02;;;;;;;2.42;0.52;;;;;;;;;;5115306;27;20525;-65
2022/10/30 11:53:38;;;;;;;2.58;0.80;;;;;;;;;;5132985;27;20043;-64
2022/10/30 11:56:22;;;;;;;1.67;0.57;;;;;;;;;;5080715;27;20062;-64
2022/10/30 11:58:56;;;;;;;3.17;1.25;;;;;;;;;;5133076;27;20039;-64
2022/10/30 12:01:33;;;;;;;9.38;5.63;;;;;;;;;;5093704;28;20059;-64
2022/10/30 12:04:21;;;;;;;3.40;0.90;;;;;;;;;;5109945;28;20098;-63
2022/10/30 12:07:07;;;;;;;8.10;3.90;;;;;;;;;;5109952;28;20742;-62
2022/10/30 12:09:47;;;;;;;3.65;1.65;;;;;;;;;;5109658;28;20044;-65
2022/10/30 12:12:35;;;;;;;7.53;3.75;;;;;;;;;;5109770;28;20139;-63
2022/10/30 12:15:19;;;;;;;3.30;2.30;;;;;;;;;;5093479;28;20545;-64
2022/10/30 12:18:02;;;;;;;3.47;2.30;;;;;;;;;;5075782;28;20578;-63
2022/10/30 12:20:37;;;;;;;13.48;9.32;;;;;;;;;;5059961;28;20478;-62
2022/10/30 12:23:16;;;;;;;7.10;4.63;;;;;;;;;;5069070;28;20049;-63
2022/10/30 12:25:55;;;;;;;8.90;5.85;;;;;;;;;;5049021;28;20540;-63
2022/10/30 12:28:31;;;;;;;4.85;2.92;;;;;;;;;;5032554;28;20064;-63
2022/10/30 12:31:18;;;;;;;6.90;4.40;;;;;;;;;;5028743;28;20050;-62
2022/10/30 12:34:11;;;;;;;8.00;2.72;;;;;;;;;;5028821;28;20045;-63
2022/10/30 12:37:03;;;;;;;5.32;3.80;;;;;;;;;;4989842;28;20054;-63
2022/10/30 12:39:54;;;;;;;6.25;2.67;;;;;;;;;;4989930;28;20055;-63
2022/10/30 12:42:25;;;;;;;2.50;1.30;;;;;;;;;;4989784;28;20050;-63
2022/10/30 12:45:07;;;;;;;2.13;0.70;;;;;;;;;;4973490;28;20059;-63
2022/10/30 12:47:57;;;;;;;2.97;1.92;;;;;;;;;;4989568;28;20050;-63
2022/10/30 12:50:43;;;;;;;2.53;1.73;;;;;;;;;;4989655;28;20057;-64
2022/10/30 12:53:48;;;;;;;1.60;0.70;;;;;;;;;;4989728;28;20410;-64
2022/10/30 12:56:33;;;;;;;3.25;1.60;;;;;;;;;;4955619;28;20069;-64
2022/10/30 12:59:30;;;;;;;2.80;1.90;;;;;;;;;;4970393;28;20066;-63
2022/10/30 13:02:39;;;;;;;3.88;1.63;;;;;;;;;;4989875;28;20085;-68
2022/10/30 13:05:31;;;;;;;2.85;1.90;;;;;;;;;;4931766;29;20067;-63
2022/10/30 13:08:19;;;;;;;2.88;1.08;;;;;;;;;;4936378;29;20055;-63
2022/10/30 13:11:12;;;;;;;3.13;2.00;;;;;;;;;;4917287;29;20044;-64
2022/10/30 13:13:59;;;;;;;2.50;1.13;;;;;;;;;;4903213;29;20059;-63
2022/10/30 13:16:31;;;;;;;1.42;0.70;;;;;;;;;;4912537;29;20064;-63
2022/10/30 13:19:02;;;;;;;1.83;1.00;;;;;;;;;;4896264;29;20071;-64
2022/10/30 13:21:55;;;;;;;4.22;2.20;;;;;;;;;;4913927;29;20604;-63
2022/10/30 13:24:45;;;;;;;4.50;2.22;;;;;;;;;;4900148;29;20063;-63
2022/10/30 13:27:41;;;;;;;3.10;1.75;;;;;;;;;;4915946;29;20070;-64
2022/10/30 13:30:25;;;;;;;4.95;2.35;;;;;;;;;;4897242;29;20068;-63
2022/10/30 13:33:25;;;;;;;4.60;2.35;;;;;;;;;;4897181;29;20469;-63
2022/10/30 13:36:03;;;;;;;6.68;2.92;;;;;;;;;;4850805;29;20052;-63
2022/10/30 13:38:44;;;;;;;4.10;2.13;;;;;;;;;;4906771;29;20423;-64
2022/10/30 13:41:32;;;;;;;3.85;2.03;;;;;;;;;;4934901;29;20052;-64
2022/10/30 13:44:39;;;;;;;5.47;3.33;;;;;;;;;;4934865;29;20182;-64
2022/10/30 13:47:35;;;;;;;8.38;3.42;;;;;;;;;;4934864;29;20060;-64
2022/10/30 13:50:36;;;;;;;3.88;2.33;;;;;;;;;;4984241;28;20049;-64
2022/10/30 13:53:18;;;;;;;2.00;1.20;;;;;;;;;;5051768;28;20096;-65
2022/10/30 13:55:50;;;;;;;1.92;1.02;;;;;;;;;;5051787;28;20060;-63
2022/10/30 13:58:43;;;;;;;1.38;0.77;;;;;;;;;;5051780;28;20394;-63
2022/10/30 14:01:16;;;;;;;2.30;1.33;;;;;;;;;;4992198;28;20054;-64
2022/10/30 14:04:28;;;;;;;1.30;0.73;;;;;;;;;;4992428;28;20062;-63
2022/10/30 14:07:30;;;;;;;3.55;1.02;;;;;;;;;;4978723;28;20057;-67
2022/10/30 14:10:20;;;;;;;4.95;2.33;;;;;;;;;;4992205;28;20058;-64
2022/10/30 14:12:55;;;;;;;1.60;1.00;;;;;;;;;;4992097;28;20136;-64
2022/10/30 14:15:31;;;;;;;2.00;0.98;;;;;;;;;;4976498;28;20058;-64
2022/10/30 14:18:13;;;;;;;1.67;1.20;;;;;;;;;;4991799;28;20062;-64
2022/10/30 14:20:49;;;;;;;1.58;1.00;;;;;;;;;;4959692;28;20057;-64
2022/10/30 14:23:36;;;;;;;3.50;0.68;;;;;;;;;;4991988;28;20046;-64
2022/10/30 14:26:10;;;;;;;2.15;1.17;;;;;;;;;;4991979;28;20058;-64
2022/10/30 14:28:44;;;;;;;2.47;1.13;;;;;;;;;;4989615;28;20050;-64
2022/10/30 14:31:17;;;;;;;1.42;0.60;;;;;;;;;;4943373;28;20588;-67
2022/10/30 14:33:51;;;;;;;1.23;0.57;;;;;;;;;;4959290;28;20050;-63
2022/10/30 14:36:25;;;;;;;1.50;0.73;;;;;;;;;;4959214;28;20047;-65
2022/10/30 14:39:01;;;;;;;1.40;0.80;;;;;;;;;;4987714;28;20053;-64
2022/10/30 14:42:02;;;;;;;2.15;0.50;;;;;;;;;;5030713;28;20053;-64
2022/10/30 14:44:35;;;;;;;1.33;0.70;;;;;;;;;;5033268;28;20060;-66
2022/10/30 14:47:14;;;;;;;1.05;0.50;;;;;;;;;;5070567;28;20060;-65
2022/10/30 14:50:00;;;;;;;2.60;1.23;;;;;;;;;;5070721;28;20040;-70
2022/10/30 14:52:40;;;;;;;0.85;0.52;;;;;;;;;;5070631;28;20396;-64
2022/10/30 14:55:32;;;;;;;1.02;0.45;;;;;;;;;;5050309;28;20059;-64
2022/10/30 14:58:03;;;;;;;1.02;0.50;;;;;;;;;;5050758;28;20067;-64
2022/10/30 15:00:36;;;;;;;0.57;0.30;;;;;;;;;;5050429;28;20072;-65
2022/10/30 15:03:13;;;;;;;1.67;0.47;;;;;;;;;;5050443;28;20060;-64
2022/10/30 15:05:51;;;;;;;2.60;0.55;;;;;;;;;;5050357;28;20053;-68
2022/10/30 15:08:47;;;;;;;0.63;0.40;;;;;;;;;;5050271;28;20049;-68
2022/10/30 15:11:35;;;;;;;0.90;0.50;;;;;;;;;;4991010;28;20065;-74
2022/10/30 15:14:18;;;;;;;0.93;0.60;;;;;;;;;;4932981;29;20055;-70
2022/10/30 15:17:00;;;;;;;1.52;0.28;;;;;;;;;;4932907;29;20059;-70
2022/10/30 15:19:34;;;;;;;1.85;0.50;;;;;;;;;;4957620;28;20055;-72
2022/10/30 15:22:04;;;;;;;0.73;0.40;;;;;;;;;;4971521;28;20066;-68
2022/10/30 15:24:34;;;;;;;1.33;0.40;;;;;;;;;;4971532;28;20070;-69
2022/10/30 15:27:05;;;;;;;1.48;0.30;;;;;;;;;;4939140;28;20054;-67
2022/10/30 15:29:35;;;;;;;0.93;0.40;;;;;;;;;;4939180;28;20047;-68
2022/10/30 15:32:18;;;;;;;0.93;0.40;;;;;;;;;;4943135;28;20054;-68
2022/10/30 15:34:54;;;;;;;0.47;0.38;;;;;;;;;;4990750;28;20438;-69
2022/10/30 15:37:24;;;;;;;0.68;0.40;;;;;;;;;;4990697;28;20514;-68
2022/10/30 15:40:11;;;;;;;0.43;0.22;;;;;;;;;;4986811;28;20055;-67
2022/10/30 15:42:43;;;;;;;0.38;0.20;;;;;;;;;;4970901;28;20526;-68
2022/10/30 15:45:35;;;;;;;2.05;0.50;;;;;;;;;;4960366;28;20501;-67
2022/10/30 15:48:16;;;;;;;0.70;0.40;;;;;;;;;;5051141;28;20426;-67
2022/10/30 15:51:00;;;;;;;1.42;0.30;;;;;;;;;;5089671;28;20499;-67
2022/10/30 15:53:50;;;;;;;0.60;0.50;;;;;;;;;;5056472;28;20052;-66